KE152 RKSI-UAAA
Flight info
| Callsign | KE152 |
|---|---|
| Flight time | 5h 51m |
| Altitude | 38000 |
| Route | NOPIK2A NOPIK Y697 AGAVO DCT FZ/K0902S1160 W4 HCH W200 DOVIV W55 PAMRU W34 LADIX B339 ASILA A575 UPREK W28 VERMI/K0900S1220 W28 LAGEB DCT JNQ DCT GOVSA W66 NUKTI B215 HAM W99 FKG B215 KABDO W119 GOBOK A343 RULAD/K0896F400 M610 BERTO Z315 ALUGI ALUGI1Z |
| Aircraft | A359/H-SDE2E3GHIJ3J4J5LM1ORWXY/LB1D1 |
Departure
| Time | 2026-04-13 16:52 |
|---|---|
| Airport | Incheon International Airport (RKSI) |
Arrival
| Time | 2026-04-13 22:44 |
|---|---|
| Airport | Almaty International Airport (UAAA) |
| Time | Latitude | Longitude | Altitude | Speed | Heading |
|---|---|---|---|---|---|
| 2026-04-13 16:15 | 37.46249 | 126.43495 | 39 ft | 0 kts | 276° |
| 2026-04-13 16:37 | 37.46248 | 126.43512 | 37 ft | 4 kts | 277° |
| 2026-04-13 16:38 | 37.46244 | 126.43545 | 35 ft | 4 kts | 276° |
| 2026-04-13 16:38 | 37.46242 | 126.43578 | 35 ft | 4 kts | 269° |
| 2026-04-13 16:38 | 37.46242 | 126.43587 | 35 ft | 2 kts | 267° |
| 2026-04-13 16:38 | 37.46244 | 126.43586 | 35 ft | 4 kts | 291° |
| 2026-04-13 16:39 | 37.46257 | 126.43581 | 37 ft | 4 kts | 340° |
| 2026-04-13 16:39 | 37.46282 | 126.43580 | 39 ft | 4 kts | 3° |
| 2026-04-13 16:39 | 37.46309 | 126.43584 | 39 ft | 4 kts | 6° |
| 2026-04-13 16:39 | 37.46327 | 126.43581 | 39 ft | 4 kts | 334° |
| 2026-04-13 16:40 | 37.46359 | 126.43549 | 38 ft | 4 kts | 144° |
| 2026-04-13 16:43 | 37.46349 | 126.43559 | 38 ft | 6 kts | 144° |
| 2026-04-13 16:43 | 37.46292 | 126.43611 | 39 ft | 14 kts | 144° |
| 2026-04-13 16:44 | 37.46208 | 126.43687 | 39 ft | 15 kts | 145° |
| 2026-04-13 16:44 | 37.46163 | 126.43791 | 39 ft | 14 kts | 76° |
| 2026-04-13 16:44 | 37.46214 | 126.43902 | 39 ft | 15 kts | 54° |
| 2026-04-13 16:44 | 37.46275 | 126.44015 | 39 ft | 16 kts | 54° |
| 2026-04-13 16:45 | 37.46343 | 126.44134 | 39 ft | 17 kts | 54° |
| 2026-04-13 16:45 | 37.46417 | 126.44263 | 39 ft | 19 kts | 54° |
| 2026-04-13 16:45 | 37.46493 | 126.44397 | 39 ft | 20 kts | 55° |
| 2026-04-13 16:45 | 37.46566 | 126.44545 | 39 ft | 20 kts | 59° |
| 2026-04-13 16:46 | 37.46547 | 126.44652 | 37 ft | 12 kts | 138° |
| 2026-04-13 16:46 | 37.46480 | 126.44726 | 39 ft | 13 kts | 142° |
| 2026-04-13 16:46 | 37.46403 | 126.44798 | 39 ft | 15 kts | 144° |
| 2026-04-13 16:46 | 37.46315 | 126.44876 | 39 ft | 16 kts | 144° |
| 2026-04-13 16:47 | 37.46222 | 126.44960 | 39 ft | 17 kts | 146° |
| 2026-04-13 16:47 | 37.46123 | 126.45048 | 39 ft | 18 kts | 144° |
| 2026-04-13 16:47 | 37.46006 | 126.45152 | 39 ft | 23 kts | 145° |
| 2026-04-13 16:47 | 37.45876 | 126.45267 | 39 ft | 23 kts | 144° |
| 2026-04-13 16:48 | 37.45742 | 126.45386 | 39 ft | 24 kts | 144° |
| 2026-04-13 16:48 | 37.45603 | 126.45510 | 39 ft | 25 kts | 144° |
| 2026-04-13 16:48 | 37.45458 | 126.45638 | 39 ft | 25 kts | 144° |
| 2026-04-13 16:48 | 37.45351 | 126.45733 | 39 ft | 16 kts | 144° |
| 2026-04-13 16:49 | 37.45304 | 126.45840 | 39 ft | 14 kts | 78° |
| 2026-04-13 16:49 | 37.45353 | 126.45941 | 39 ft | 14 kts | 55° |
| 2026-04-13 16:49 | 37.45414 | 126.46044 | 39 ft | 13 kts | 39° |
| 2026-04-13 16:49 | 37.45492 | 126.46025 | 39 ft | 12 kts | 327° |
| 2026-04-13 16:50 | 37.45506 | 126.46013 | 39 ft | 0 kts | 324° |
| 2026-04-13 16:51 | 37.45553 | 126.45971 | 39 ft | 35 kts | 324° |
| 2026-04-13 16:51 | 37.45940 | 126.45628 | 39 ft | 99 kts | 325° |
| 2026-04-13 16:52 | 37.46661 | 126.44988 | 39 ft | 153 kts | 326° |
| 2026-04-13 16:52 | 37.47564 | 126.44214 | 619 ft | 151 kts | 326° |
| 2026-04-13 16:52 | 37.48457 | 126.43451 | 1139 ft | 159 kts | 327° |
| 2026-04-13 16:52 | 37.49395 | 126.42652 | 1673 ft | 166 kts | 327° |
| 2026-04-13 16:53 | 37.50367 | 126.41826 | 2235 ft | 170 kts | 327° |
| 2026-04-13 16:53 | 37.51341 | 126.41003 | 2858 ft | 168 kts | 327° |
| 2026-04-13 16:53 | 37.52344 | 126.40186 | 3315 ft | 180 kts | 328° |
| 2026-04-13 16:53 | 37.53436 | 126.39293 | 3536 ft | 196 kts | 327° |
| 2026-04-13 16:54 | 37.54625 | 126.38305 | 3733 ft | 213 kts | 327° |
| 2026-04-13 16:54 | 37.55904 | 126.37232 | 3968 ft | 228 kts | 326° |
| 2026-04-13 16:54 | 37.57209 | 126.35977 | 4165 ft | 247 kts | 314° |
| 2026-04-13 16:54 | 37.57993 | 126.34009 | 4383 ft | 262 kts | 277° |
| 2026-04-13 16:55 | 37.58048 | 126.31707 | 4943 ft | 265 kts | 268° |
| 2026-04-13 16:55 | 37.58004 | 126.29371 | 5551 ft | 267 kts | 268° |
| 2026-04-13 16:55 | 37.57987 | 126.27836 | 5950 ft | 268 kts | 269° |
| 2026-04-13 16:55 | 37.57975 | 126.25474 | 6591 ft | 269 kts | 269° |
| 2026-04-13 16:56 | 37.57970 | 126.23108 | 7156 ft | 272 kts | 269° |
| 2026-04-13 16:56 | 37.57802 | 126.20716 | 7676 ft | 276 kts | 255° |
| 2026-04-13 16:56 | 37.57100 | 126.18458 | 8254 ft | 278 kts | 244° |
| 2026-04-13 16:56 | 37.56237 | 126.16261 | 8831 ft | 282 kts | 243° |
| 2026-04-13 16:57 | 37.55365 | 126.14040 | 9416 ft | 285 kts | 244° |
| 2026-04-13 16:57 | 37.54490 | 126.11789 | 10019 ft | 287 kts | 244° |
| 2026-04-13 16:57 | 37.53596 | 126.09483 | 10363 ft | 299 kts | 244° |
| 2026-04-13 16:57 | 37.52662 | 126.07066 | 10589 ft | 313 kts | 244° |
| 2026-04-13 16:58 | 37.51690 | 126.04548 | 10834 ft | 327 kts | 244° |
| 2026-04-13 16:58 | 37.50674 | 126.01918 | 11056 ft | 340 kts | 244° |
| 2026-04-13 16:58 | 37.49622 | 125.99196 | 11318 ft | 351 kts | 244° |
| 2026-04-13 16:58 | 37.48547 | 125.96415 | 11743 ft | 355 kts | 244° |
| 2026-04-13 16:59 | 37.47462 | 125.93613 | 12226 ft | 358 kts | 244° |
| 2026-04-13 16:59 | 37.46366 | 125.90781 | 12714 ft | 361 kts | 244° |
| 2026-04-13 16:59 | 37.45261 | 125.87932 | 13218 ft | 363 kts | 243° |
| 2026-04-13 16:59 | 37.44151 | 125.85072 | 13701 ft | 365 kts | 243° |
| 2026-04-13 17:00 | 37.43052 | 125.82241 | 14123 ft | 367 kts | 243° |
| 2026-04-13 17:00 | 37.41915 | 125.79317 | 14606 ft | 368 kts | 244° |
| 2026-04-13 17:00 | 37.40893 | 125.76396 | 15038 ft | 370 kts | 251° |
| 2026-04-13 17:00 | 37.40416 | 125.73219 | 15480 ft | 371 kts | 266° |
| 2026-04-13 17:01 | 37.40348 | 125.69926 | 15960 ft | 373 kts | 269° |
| 2026-04-13 17:01 | 37.40326 | 125.66709 | 16415 ft | 374 kts | 269° |
| 2026-04-13 17:01 | 37.40297 | 125.63431 | 16880 ft | 375 kts | 269° |
| 2026-04-13 17:01 | 37.40265 | 125.60166 | 17341 ft | 376 kts | 269° |
| 2026-04-13 17:02 | 37.40225 | 125.56871 | 17798 ft | 377 kts | 269° |
| 2026-04-13 17:02 | 37.40179 | 125.53560 | 18249 ft | 379 kts | 269° |
| 2026-04-13 17:02 | 37.40131 | 125.50246 | 18626 ft | 380 kts | 269° |
| 2026-04-13 17:02 | 37.40080 | 125.46914 | 19038 ft | 380 kts | 269° |
| 2026-04-13 17:03 | 37.40029 | 125.43596 | 19452 ft | 380 kts | 269° |
| 2026-04-13 17:03 | 37.39977 | 125.40279 | 19840 ft | 381 kts | 269° |
| 2026-04-13 17:03 | 37.39925 | 125.36940 | 20223 ft | 381 kts | 269° |
| 2026-04-13 17:03 | 37.39872 | 125.33609 | 20593 ft | 382 kts | 269° |
| 2026-04-13 17:04 | 37.39818 | 125.30265 | 20963 ft | 383 kts | 269° |
| 2026-04-13 17:04 | 37.39763 | 125.26918 | 21313 ft | 384 kts | 269° |
| 2026-04-13 17:04 | 37.39707 | 125.23555 | 21679 ft | 384 kts | 269° |
| 2026-04-13 17:04 | 37.39654 | 125.20212 | 22021 ft | 385 kts | 269° |
| 2026-04-13 17:05 | 37.39598 | 125.16823 | 22368 ft | 386 kts | 269° |
| 2026-04-13 17:05 | 37.39538 | 125.13438 | 22705 ft | 387 kts | 269° |
| 2026-04-13 17:05 | 37.39477 | 125.10051 | 23034 ft | 388 kts | 269° |
| 2026-04-13 17:05 | 37.39415 | 125.06658 | 23352 ft | 389 kts | 269° |
| 2026-04-13 17:06 | 37.39353 | 125.03256 | 23649 ft | 390 kts | 269° |
| 2026-04-13 17:06 | 37.39289 | 124.99847 | 23884 ft | 391 kts | 269° |
| 2026-04-13 17:06 | 37.39224 | 124.96420 | 24115 ft | 393 kts | 269° |
| 2026-04-13 17:06 | 37.39159 | 124.92983 | 24355 ft | 394 kts | 269° |
| 2026-04-13 17:07 | 37.39092 | 124.89536 | 24594 ft | 395 kts | 268° |
| 2026-04-13 17:07 | 37.39024 | 124.86077 | 24840 ft | 396 kts | 268° |
| 2026-04-13 17:07 | 37.38969 | 124.83287 | 25039 ft | 397 kts | 268° |
| 2026-04-13 17:08 | 37.38910 | 124.80118 | 25287 ft | 398 kts | 268° |
| 2026-04-13 17:08 | 37.38841 | 124.76632 | 25541 ft | 398 kts | 268° |
| 2026-04-13 17:08 | 37.38766 | 124.73150 | 25781 ft | 400 kts | 268° |
| 2026-04-13 17:08 | 37.38690 | 124.69651 | 26025 ft | 401 kts | 268° |
| 2026-04-13 17:09 | 37.38612 | 124.66144 | 26278 ft | 402 kts | 268° |
| 2026-04-13 17:09 | 37.38534 | 124.62630 | 26523 ft | 403 kts | 268° |
| 2026-04-13 17:09 | 37.38455 | 124.59104 | 26774 ft | 404 kts | 268° |
| 2026-04-13 17:09 | 37.38376 | 124.55570 | 27039 ft | 405 kts | 268° |
| 2026-04-13 17:10 | 37.38295 | 124.52022 | 27299 ft | 406 kts | 268° |
| 2026-04-13 17:10 | 37.38207 | 124.48465 | 27556 ft | 408 kts | 267° |
| 2026-04-13 17:10 | 37.37904 | 124.44918 | 27823 ft | 409 kts | 260° |
| 2026-04-13 17:10 | 37.37232 | 124.41486 | 28081 ft | 411 kts | 253° |
| 2026-04-13 17:11 | 37.35696 | 124.37117 | 28464 ft | 415 kts | 243° |
| 2026-04-13 17:11 | 37.34236 | 124.33979 | 28738 ft | 417 kts | 241° |
| 2026-04-13 17:12 | 37.32696 | 124.30875 | 29012 ft | 419 kts | 240° |
| 2026-04-13 17:12 | 37.31123 | 124.27789 | 29290 ft | 420 kts | 240° |
| 2026-04-13 17:12 | 37.29536 | 124.24697 | 29582 ft | 422 kts | 240° |
| 2026-04-13 17:12 | 37.27949 | 124.21596 | 29875 ft | 423 kts | 240° |
| 2026-04-13 17:13 | 37.26366 | 124.18485 | 30160 ft | 424 kts | 240° |
| 2026-04-13 17:13 | 37.24780 | 124.15354 | 30417 ft | 425 kts | 240° |
| 2026-04-13 17:13 | 37.23199 | 124.12225 | 30681 ft | 426 kts | 240° |
| 2026-04-13 17:13 | 37.21581 | 124.09102 | 30949 ft | 427 kts | 239° |
| 2026-04-13 17:14 | 37.20034 | 124.05925 | 31202 ft | 427 kts | 244° |
| 2026-04-13 17:14 | 37.18797 | 124.02545 | 31487 ft | 426 kts | 251° |
| 2026-04-13 17:14 | 37.17957 | 123.99001 | 31752 ft | 426 kts | 258° |
| 2026-04-13 17:14 | 37.17553 | 123.95313 | 31986 ft | 427 kts | 266° |
| 2026-04-13 17:15 | 37.17611 | 123.91583 | 32215 ft | 430 kts | 274° |
| 2026-04-13 17:15 | 37.17948 | 123.87853 | 32438 ft | 432 kts | 275° |
| 2026-04-13 17:15 | 37.18362 | 123.84110 | 32662 ft | 434 kts | 276° |
| 2026-04-13 17:15 | 37.18805 | 123.80371 | 32877 ft | 435 kts | 276° |
| 2026-04-13 17:16 | 37.19253 | 123.76618 | 33161 ft | 434 kts | 276° |
| 2026-04-13 17:16 | 37.19693 | 123.72875 | 33526 ft | 432 kts | 275° |
| 2026-04-13 17:16 | 37.20121 | 123.69150 | 33868 ft | 431 kts | 275° |
| 2026-04-13 17:16 | 37.20539 | 123.65435 | 34188 ft | 429 kts | 275° |
| 2026-04-13 17:17 | 37.20948 | 123.61739 | 34480 ft | 428 kts | 275° |
| 2026-04-13 17:17 | 37.21353 | 123.58046 | 34801 ft | 425 kts | 275° |
| 2026-04-13 17:17 | 37.21754 | 123.54379 | 35103 ft | 424 kts | 275° |
| 2026-04-13 17:17 | 37.22152 | 123.50718 | 35394 ft | 422 kts | 274° |
| 2026-04-13 17:18 | 37.22548 | 123.47076 | 35679 ft | 421 kts | 274° |
| 2026-04-13 17:18 | 37.22941 | 123.43441 | 35963 ft | 420 kts | 274° |
| 2026-04-13 17:18 | 37.23326 | 123.39884 | 36241 ft | 419 kts | 274° |
| 2026-04-13 17:18 | 37.23722 | 123.36213 | 36514 ft | 417 kts | 274° |
| 2026-04-13 17:19 | 37.24109 | 123.32608 | 36789 ft | 416 kts | 274° |
| 2026-04-13 17:19 | 37.24496 | 123.29003 | 37064 ft | 415 kts | 274° |
| 2026-04-13 17:19 | 37.24874 | 123.25470 | 37330 ft | 414 kts | 274° |
| 2026-04-13 17:19 | 37.25255 | 123.21892 | 37586 ft | 413 kts | 274° |
| 2026-04-13 17:20 | 37.25634 | 123.18323 | 37830 ft | 412 kts | 274° |
| 2026-04-13 17:20 | 37.26012 | 123.14759 | 38070 ft | 412 kts | 274° |
| 2026-04-13 17:20 | 37.26388 | 123.11195 | 38143 ft | 413 kts | 274° |
| 2026-04-13 17:21 | 37.27140 | 123.04036 | 38140 ft | 414 kts | 274° |
| 2026-04-13 17:21 | 37.27891 | 122.96858 | 38146 ft | 415 kts | 274° |
| 2026-04-13 17:22 | 37.28637 | 122.89682 | 38148 ft | 415 kts | 274° |
| 2026-04-13 17:22 | 37.29380 | 122.82494 | 38152 ft | 415 kts | 274° |
| 2026-04-13 17:23 | 37.30119 | 122.75300 | 38149 ft | 415 kts | 274° |
| 2026-04-13 17:23 | 37.30854 | 122.68101 | 38149 ft | 416 kts | 274° |
| 2026-04-13 17:24 | 37.31585 | 122.60897 | 38151 ft | 416 kts | 274° |
| 2026-04-13 17:24 | 37.32312 | 122.53689 | 38155 ft | 416 kts | 273° |
| 2026-04-13 17:25 | 37.33036 | 122.46472 | 38154 ft | 416 kts | 273° |
| 2026-04-13 17:25 | 37.33756 | 122.39254 | 38152 ft | 416 kts | 273° |
| 2026-04-13 17:26 | 37.34469 | 122.32040 | 38157 ft | 416 kts | 273° |
| 2026-04-13 17:26 | 37.35180 | 122.24813 | 38151 ft | 417 kts | 273° |
| 2026-04-13 17:27 | 37.36233 | 122.14008 | 38149 ft | 417 kts | 273° |
| 2026-04-13 17:27 | 37.36934 | 122.06767 | 38157 ft | 417 kts | 273° |
| 2026-04-13 17:28 | 37.37635 | 121.99474 | 38155 ft | 417 kts | 273° |
| 2026-04-13 17:28 | 37.38327 | 121.92234 | 38158 ft | 418 kts | 273° |
| 2026-04-13 17:29 | 37.39011 | 121.85023 | 38158 ft | 418 kts | 273° |
| 2026-04-13 17:29 | 37.39699 | 121.77718 | 38154 ft | 418 kts | 273° |
| 2026-04-13 17:30 | 37.40376 | 121.70500 | 38155 ft | 419 kts | 273° |
| 2026-04-13 17:30 | 37.41052 | 121.63229 | 38156 ft | 419 kts | 273° |
| 2026-04-13 17:31 | 37.41725 | 121.55941 | 38149 ft | 419 kts | 273° |
| 2026-04-13 17:31 | 37.42394 | 121.48652 | 38159 ft | 420 kts | 273° |
| 2026-04-13 17:32 | 37.43056 | 121.41392 | 38157 ft | 420 kts | 273° |
| 2026-04-13 17:32 | 37.43718 | 121.34074 | 38155 ft | 420 kts | 273° |
| 2026-04-13 17:33 | 37.44376 | 121.26747 | 38155 ft | 421 kts | 273° |
| 2026-04-13 17:33 | 37.45127 | 121.19449 | 38158 ft | 423 kts | 277° |
| 2026-04-13 17:34 | 37.47994 | 121.08843 | 38154 ft | 430 kts | 286° |
| 2026-04-13 17:35 | 37.50243 | 121.01829 | 38153 ft | 431 kts | 287° |
| 2026-04-13 17:35 | 37.52489 | 120.94839 | 38152 ft | 431 kts | 286° |
| 2026-04-13 17:36 | 37.54715 | 120.87841 | 38152 ft | 431 kts | 286° |
| 2026-04-13 17:36 | 37.56937 | 120.80809 | 38152 ft | 431 kts | 286° |
| 2026-04-13 17:37 | 37.59156 | 120.73780 | 38148 ft | 432 kts | 287° |
| 2026-04-13 17:37 | 37.61448 | 120.66774 | 38151 ft | 432 kts | 287° |
| 2026-04-13 17:38 | 37.63768 | 120.59774 | 38150 ft | 433 kts | 287° |
| 2026-04-13 17:38 | 37.66302 | 120.52860 | 38150 ft | 437 kts | 293° |
| 2026-04-13 17:39 | 37.69294 | 120.46158 | 38147 ft | 439 kts | 294° |
| 2026-04-13 17:39 | 37.72344 | 120.39484 | 38147 ft | 439 kts | 294° |
| 2026-04-13 17:40 | 37.75399 | 120.32804 | 38147 ft | 439 kts | 294° |
| 2026-04-13 17:40 | 37.78446 | 120.26106 | 38147 ft | 439 kts | 294° |
| 2026-04-13 17:41 | 37.81461 | 120.19454 | 38147 ft | 439 kts | 294° |
| 2026-04-13 17:41 | 37.84488 | 120.12757 | 38148 ft | 439 kts | 294° |
| 2026-04-13 17:42 | 37.87517 | 120.06044 | 38149 ft | 439 kts | 294° |
| 2026-04-13 17:42 | 37.90542 | 119.99326 | 38149 ft | 439 kts | 294° |
| 2026-04-13 17:43 | 37.93560 | 119.92611 | 38149 ft | 439 kts | 293° |
| 2026-04-13 17:43 | 37.96573 | 119.85890 | 38153 ft | 439 kts | 293° |
| 2026-04-13 17:44 | 37.99094 | 119.80260 | 38140 ft | 438 kts | 293° |
| 2026-04-13 17:44 | 38.02100 | 119.73530 | 38159 ft | 438 kts | 293° |
| 2026-04-13 17:45 | 38.05099 | 119.66801 | 38166 ft | 438 kts | 293° |
| 2026-04-13 17:45 | 38.08096 | 119.60065 | 38154 ft | 438 kts | 293° |
| 2026-04-13 17:46 | 38.11006 | 119.53326 | 38152 ft | 435 kts | 289° |
| 2026-04-13 17:46 | 38.13425 | 119.46248 | 38147 ft | 434 kts | 287° |
| 2026-04-13 17:47 | 38.15730 | 119.39176 | 38146 ft | 434 kts | 287° |
| 2026-04-13 17:47 | 38.18010 | 119.32123 | 38149 ft | 434 kts | 287° |
| 2026-04-13 17:48 | 38.20306 | 119.25026 | 38151 ft | 434 kts | 287° |
| 2026-04-13 17:48 | 38.22620 | 119.17870 | 38154 ft | 435 kts | 287° |
| 2026-04-13 17:49 | 38.24904 | 119.10796 | 38152 ft | 435 kts | 287° |
| 2026-04-13 17:49 | 38.27213 | 119.03624 | 38155 ft | 435 kts | 287° |
| 2026-04-13 17:50 | 38.29487 | 118.96540 | 38150 ft | 436 kts | 287° |
| 2026-04-13 17:50 | 38.31778 | 118.89388 | 38152 ft | 436 kts | 287° |
| 2026-04-13 17:51 | 38.34061 | 118.82244 | 38153 ft | 436 kts | 287° |
| 2026-04-13 17:51 | 38.36341 | 118.75090 | 38152 ft | 436 kts | 287° |
| 2026-04-13 17:52 | 38.38629 | 118.67932 | 38152 ft | 436 kts | 287° |
| 2026-04-13 17:52 | 38.40911 | 118.60780 | 38154 ft | 436 kts | 287° |
| 2026-04-13 17:53 | 38.43192 | 118.53615 | 38149 ft | 436 kts | 287° |
| 2026-04-13 17:53 | 38.45463 | 118.46458 | 38152 ft | 435 kts | 287° |
| 2026-04-13 17:54 | 38.47732 | 118.39295 | 38149 ft | 435 kts | 287° |
| 2026-04-13 17:54 | 38.49998 | 118.32136 | 38156 ft | 435 kts | 287° |
| 2026-04-13 17:55 | 38.52248 | 118.24968 | 38160 ft | 435 kts | 286° |
| 2026-04-13 17:55 | 38.54494 | 118.17800 | 38150 ft | 435 kts | 287° |
| 2026-04-13 17:56 | 38.56738 | 118.10628 | 38151 ft | 435 kts | 286° |
| 2026-04-13 17:56 | 38.59327 | 118.03605 | 38156 ft | 442 kts | 296° |
| 2026-04-13 17:57 | 38.63223 | 117.97416 | 38155 ft | 452 kts | 306° |
| 2026-04-13 17:57 | 38.67575 | 117.91573 | 38160 ft | 454 kts | 307° |
| 2026-04-13 17:58 | 38.71937 | 117.85814 | 38157 ft | 454 kts | 307° |
| 2026-04-13 17:58 | 38.76320 | 117.79982 | 38160 ft | 454 kts | 307° |
| 2026-04-13 17:59 | 38.80679 | 117.74139 | 38153 ft | 454 kts | 306° |
| 2026-04-13 17:59 | 38.85039 | 117.68274 | 38159 ft | 454 kts | 306° |
| 2026-04-13 18:00 | 38.89386 | 117.62417 | 38161 ft | 454 kts | 306° |
| 2026-04-13 18:00 | 38.93744 | 117.56535 | 38156 ft | 454 kts | 306° |
| 2026-04-13 18:01 | 38.98092 | 117.50657 | 38155 ft | 454 kts | 306° |
| 2026-04-13 18:01 | 39.02431 | 117.44780 | 38150 ft | 453 kts | 306° |
| 2026-04-13 18:02 | 39.06296 | 117.38498 | 38150 ft | 441 kts | 294° |
| 2026-04-13 18:02 | 39.08611 | 117.31348 | 38151 ft | 429 kts | 279° |
| 2026-04-13 18:03 | 39.09755 | 117.23837 | 38150 ft | 427 kts | 276° |
| 2026-04-13 18:03 | 39.10729 | 117.16303 | 38150 ft | 427 kts | 275° |
| 2026-04-13 18:04 | 39.12266 | 117.08885 | 38154 ft | 434 kts | 288° |
| 2026-04-13 18:04 | 39.15396 | 117.02147 | 38156 ft | 447 kts | 303° |
| 2026-04-13 18:05 | 39.20126 | 116.96779 | 38155 ft | 465 kts | 320° |
| 2026-04-13 18:05 | 39.26184 | 116.93464 | 38150 ft | 486 kts | 339° |
| 2026-04-13 18:05 | 39.29559 | 116.92786 | 38156 ft | 497 kts | 348° |
| 2026-04-13 18:06 | 39.33062 | 116.92858 | 38160 ft | 508 kts | 359° |
| 2026-04-13 18:06 | 39.40063 | 116.93324 | 38156 ft | 497 kts | 347° |
| 2026-04-13 18:07 | 39.46890 | 116.92277 | 38154 ft | 493 kts | 343° |
| 2026-04-13 18:07 | 39.53611 | 116.90947 | 38154 ft | 492 kts | 342° |
| 2026-04-13 18:08 | 39.60365 | 116.89528 | 38152 ft | 491 kts | 342° |
| 2026-04-13 18:08 | 39.67118 | 116.88112 | 38153 ft | 492 kts | 342° |
| 2026-04-13 18:09 | 39.73869 | 116.86708 | 38152 ft | 492 kts | 342° |
| 2026-04-13 18:09 | 39.80629 | 116.85307 | 38149 ft | 491 kts | 342° |
| 2026-04-13 18:10 | 39.87380 | 116.83944 | 38146 ft | 492 kts | 342° |
| 2026-04-13 18:10 | 39.94138 | 116.82615 | 38145 ft | 491 kts | 342° |
| 2026-04-13 18:11 | 40.00889 | 116.81280 | 38149 ft | 490 kts | 342° |
| 2026-04-13 18:11 | 40.07621 | 116.79938 | 38150 ft | 489 kts | 342° |
| 2026-04-13 18:12 | 40.14334 | 116.78594 | 38151 ft | 488 kts | 342° |
| 2026-04-13 18:12 | 40.21031 | 116.77250 | 38150 ft | 487 kts | 342° |
| 2026-04-13 18:13 | 40.27676 | 116.75913 | 38148 ft | 486 kts | 342° |
| 2026-04-13 18:13 | 40.34264 | 116.74255 | 38150 ft | 476 kts | 335° |
| 2026-04-13 18:14 | 40.40588 | 116.71820 | 38146 ft | 473 kts | 334° |
| 2026-04-13 18:14 | 40.46872 | 116.69273 | 38146 ft | 472 kts | 333° |
| 2026-04-13 18:15 | 40.53124 | 116.66719 | 38149 ft | 471 kts | 333° |
| 2026-04-13 18:15 | 40.59390 | 116.64167 | 38149 ft | 471 kts | 334° |
| 2026-04-13 18:16 | 40.65654 | 116.61620 | 38155 ft | 471 kts | 334° |
| 2026-04-13 18:16 | 40.71903 | 116.59074 | 38153 ft | 471 kts | 334° |
| 2026-04-13 18:17 | 40.78271 | 116.56829 | 38157 ft | 482 kts | 342° |
| 2026-04-13 18:17 | 40.84988 | 116.55937 | 38155 ft | 488 kts | 346° |
| 2026-04-13 18:18 | 40.91783 | 116.55312 | 38154 ft | 489 kts | 347° |
| 2026-04-13 18:18 | 40.98571 | 116.54720 | 38154 ft | 489 kts | 347° |
| 2026-04-13 18:19 | 41.05360 | 116.54104 | 38156 ft | 489 kts | 347° |
| 2026-04-13 18:19 | 41.12152 | 116.53473 | 38150 ft | 489 kts | 347° |
| 2026-04-13 18:20 | 41.18942 | 116.52827 | 38146 ft | 487 kts | 346° |
| 2026-04-13 18:20 | 41.25400 | 116.50903 | 38145 ft | 466 kts | 329° |
| 2026-04-13 18:21 | 41.31058 | 116.47038 | 38155 ft | 455 kts | 321° |
| 2026-04-13 18:21 | 41.36504 | 116.42743 | 38134 ft | 454 kts | 320° |
| 2026-04-13 18:22 | 41.41920 | 116.38398 | 38130 ft | 455 kts | 321° |
| 2026-04-13 18:22 | 41.47349 | 116.34064 | 38126 ft | 455 kts | 321° |
| 2026-04-13 18:23 | 41.52788 | 116.29737 | 38123 ft | 455 kts | 321° |
| 2026-04-13 18:23 | 41.58233 | 116.25404 | 38113 ft | 456 kts | 321° |
| 2026-04-13 18:24 | 41.63673 | 116.21066 | 38113 ft | 456 kts | 321° |
| 2026-04-13 18:24 | 41.69075 | 116.16747 | 38114 ft | 456 kts | 321° |
| 2026-04-13 18:25 | 41.74524 | 116.12382 | 38116 ft | 456 kts | 321° |
| 2026-04-13 18:25 | 41.79967 | 116.08014 | 38116 ft | 456 kts | 321° |
| 2026-04-13 18:26 | 41.85402 | 116.03643 | 38120 ft | 456 kts | 321° |
| 2026-04-13 18:26 | 41.90839 | 115.99251 | 38115 ft | 455 kts | 320° |
| 2026-04-13 18:27 | 41.95649 | 115.93965 | 38121 ft | 439 kts | 305° |
| 2026-04-13 18:27 | 41.99081 | 115.87368 | 38110 ft | 428 kts | 294° |
| 2026-04-13 18:28 | 42.01957 | 115.80376 | 38111 ft | 427 kts | 293° |
| 2026-04-13 18:28 | 42.04770 | 115.73331 | 38112 ft | 427 kts | 293° |
| 2026-04-13 18:29 | 42.07592 | 115.66286 | 38113 ft | 427 kts | 293° |
| 2026-04-13 18:29 | 42.10418 | 115.59262 | 38110 ft | 428 kts | 293° |
| 2026-04-13 18:30 | 42.13255 | 115.52209 | 38112 ft | 428 kts | 293° |
| 2026-04-13 18:30 | 42.16086 | 115.45152 | 38113 ft | 428 kts | 293° |
| 2026-04-13 18:31 | 42.18434 | 115.39282 | 38107 ft | 428 kts | 293° |
| 2026-04-13 18:31 | 42.21192 | 115.32176 | 38107 ft | 426 kts | 289° |
| 2026-04-13 18:32 | 42.22877 | 115.24617 | 38114 ft | 418 kts | 276° |
| 2026-04-13 18:32 | 42.23004 | 115.16834 | 38112 ft | 415 kts | 265° |
| 2026-04-13 18:33 | 42.22497 | 115.09071 | 38114 ft | 416 kts | 263° |
| 2026-04-13 18:33 | 42.21915 | 115.01304 | 38116 ft | 416 kts | 263° |
| 2026-04-13 18:34 | 42.21068 | 114.89643 | 38116 ft | 417 kts | 264° |
| 2026-04-13 18:34 | 42.20512 | 114.81860 | 38116 ft | 417 kts | 264° |
| 2026-04-13 18:35 | 42.19953 | 114.74080 | 38119 ft | 417 kts | 263° |
| 2026-04-13 18:35 | 42.19390 | 114.66336 | 38121 ft | 417 kts | 263° |
| 2026-04-13 18:36 | 42.18814 | 114.58491 | 38118 ft | 418 kts | 263° |
| 2026-04-13 18:36 | 42.18241 | 114.50757 | 38118 ft | 418 kts | 263° |
| 2026-04-13 18:37 | 42.17656 | 114.42948 | 38117 ft | 418 kts | 263° |
| 2026-04-13 18:37 | 42.17068 | 114.35153 | 38119 ft | 418 kts | 263° |
| 2026-04-13 18:38 | 42.16469 | 114.27299 | 38119 ft | 419 kts | 263° |
| 2026-04-13 18:38 | 42.15872 | 114.19544 | 38121 ft | 419 kts | 263° |
| 2026-04-13 18:39 | 42.15266 | 114.11734 | 38118 ft | 419 kts | 263° |
| 2026-04-13 18:39 | 42.14655 | 114.03927 | 38113 ft | 420 kts | 263° |
| 2026-04-13 18:40 | 42.14037 | 113.96105 | 38113 ft | 420 kts | 263° |
| 2026-04-13 18:40 | 42.13414 | 113.88279 | 38109 ft | 420 kts | 263° |
| 2026-04-13 18:41 | 42.12785 | 113.80457 | 38112 ft | 420 kts | 263° |
| 2026-04-13 18:41 | 42.12150 | 113.72622 | 38105 ft | 421 kts | 263° |
| 2026-04-13 18:42 | 42.11510 | 113.64793 | 38101 ft | 421 kts | 262° |
| 2026-04-13 18:42 | 42.10862 | 113.56940 | 38098 ft | 422 kts | 262° |
| 2026-04-13 18:43 | 42.10090 | 113.49123 | 38097 ft | 421 kts | 257° |
| 2026-04-13 18:43 | 42.08747 | 113.41442 | 38097 ft | 422 kts | 256° |
| 2026-04-13 18:44 | 42.07306 | 113.33799 | 38099 ft | 422 kts | 255° |
| 2026-04-13 18:44 | 42.05845 | 113.26142 | 38098 ft | 422 kts | 255° |
| 2026-04-13 18:45 | 42.04390 | 113.18495 | 38098 ft | 422 kts | 255° |
| 2026-04-13 18:45 | 42.02936 | 113.10839 | 38098 ft | 422 kts | 256° |
| 2026-04-13 18:46 | 42.01479 | 113.03196 | 38101 ft | 422 kts | 255° |
| 2026-04-13 18:46 | 42.00012 | 112.95544 | 38103 ft | 423 kts | 255° |
| 2026-04-13 18:47 | 41.98543 | 112.87903 | 38100 ft | 423 kts | 255° |
| 2026-04-13 18:47 | 41.97065 | 112.80249 | 38098 ft | 423 kts | 255° |
| 2026-04-13 18:48 | 41.95587 | 112.72608 | 38096 ft | 422 kts | 255° |
| 2026-04-13 18:48 | 41.94798 | 112.64798 | 38096 ft | 424 kts | 268° |
| 2026-04-13 18:49 | 41.95576 | 112.56931 | 38097 ft | 428 kts | 280° |
| 2026-04-13 18:49 | 41.97098 | 112.49229 | 38089 ft | 430 kts | 282° |
| 2026-04-13 18:50 | 41.98715 | 112.41486 | 38084 ft | 430 kts | 282° |
| 2026-04-13 18:50 | 42.00309 | 112.33734 | 38083 ft | 430 kts | 281° |
| 2026-04-13 18:51 | 42.01878 | 112.25971 | 38077 ft | 431 kts | 281° |
| 2026-04-13 18:51 | 42.03437 | 112.18189 | 38077 ft | 431 kts | 281° |
| 2026-04-13 18:52 | 42.04990 | 112.10407 | 38075 ft | 431 kts | 281° |
| 2026-04-13 18:52 | 42.06544 | 112.02598 | 38079 ft | 432 kts | 281° |
| 2026-04-13 18:53 | 42.08089 | 111.94806 | 38072 ft | 433 kts | 281° |
| 2026-04-13 18:53 | 42.09641 | 111.86945 | 38071 ft | 434 kts | 281° |
| 2026-04-13 18:54 | 42.11185 | 111.79096 | 38072 ft | 434 kts | 281° |
| 2026-04-13 18:54 | 42.12727 | 111.71222 | 38069 ft | 435 kts | 281° |
| 2026-04-13 18:55 | 42.14264 | 111.63349 | 38063 ft | 435 kts | 281° |
| 2026-04-13 18:55 | 42.15797 | 111.55465 | 38066 ft | 434 kts | 281° |
| 2026-04-13 18:56 | 42.17312 | 111.47639 | 38061 ft | 434 kts | 281° |
| 2026-04-13 18:56 | 42.18830 | 111.39764 | 38059 ft | 434 kts | 281° |
| 2026-04-13 18:57 | 42.20089 | 111.31839 | 38054 ft | 431 kts | 274° |
| 2026-04-13 18:57 | 42.19963 | 111.23830 | 38047 ft | 427 kts | 263° |
| 2026-04-13 18:58 | 42.19168 | 111.15885 | 38051 ft | 427 kts | 261° |
| 2026-04-13 18:58 | 42.18286 | 111.07980 | 38046 ft | 427 kts | 261° |
| 2026-04-13 18:59 | 42.17410 | 111.00076 | 38048 ft | 426 kts | 261° |
| 2026-04-13 18:59 | 42.16546 | 110.92176 | 38045 ft | 426 kts | 261° |
| 2026-04-13 19:00 | 42.15683 | 110.84276 | 38048 ft | 426 kts | 261° |
| 2026-04-13 19:00 | 42.14815 | 110.76379 | 38051 ft | 426 kts | 261° |
| 2026-04-13 19:01 | 42.13941 | 110.68488 | 38053 ft | 426 kts | 261° |
| 2026-04-13 19:01 | 42.13062 | 110.60603 | 38056 ft | 425 kts | 261° |
| 2026-04-13 19:02 | 42.12177 | 110.52728 | 38053 ft | 425 kts | 261° |
| 2026-04-13 19:02 | 42.11288 | 110.44856 | 38058 ft | 425 kts | 261° |
| 2026-04-13 19:03 | 42.10394 | 110.36995 | 38061 ft | 425 kts | 261° |
| 2026-04-13 19:03 | 42.09495 | 110.29139 | 38059 ft | 424 kts | 261° |
| 2026-04-13 19:04 | 42.08593 | 110.21293 | 38061 ft | 424 kts | 261° |
| 2026-04-13 19:04 | 42.07684 | 110.13442 | 38054 ft | 424 kts | 261° |
| 2026-04-13 19:05 | 42.06771 | 110.05612 | 38056 ft | 424 kts | 261° |
| 2026-04-13 19:05 | 42.05859 | 109.97834 | 38056 ft | 423 kts | 261° |
| 2026-04-13 19:06 | 42.04937 | 109.90023 | 38052 ft | 423 kts | 261° |
| 2026-04-13 19:06 | 42.04010 | 109.82211 | 38055 ft | 423 kts | 261° |
| 2026-04-13 19:07 | 42.03078 | 109.74402 | 38055 ft | 423 kts | 261° |
| 2026-04-13 19:07 | 42.02140 | 109.66591 | 38051 ft | 423 kts | 261° |
| 2026-04-13 19:08 | 42.01197 | 109.58788 | 38050 ft | 423 kts | 260° |
| 2026-04-13 19:08 | 42.00248 | 109.50977 | 38053 ft | 423 kts | 260° |
| 2026-04-13 19:09 | 41.99293 | 109.43170 | 38047 ft | 423 kts | 260° |
| 2026-04-13 19:09 | 41.98333 | 109.35364 | 38046 ft | 424 kts | 260° |
| 2026-04-13 19:10 | 41.97366 | 109.27544 | 38044 ft | 424 kts | 260° |
| 2026-04-13 19:10 | 41.96393 | 109.19717 | 38043 ft | 425 kts | 260° |
| 2026-04-13 19:11 | 41.95417 | 109.11916 | 38038 ft | 425 kts | 260° |
| 2026-04-13 19:11 | 41.94429 | 109.04070 | 38042 ft | 425 kts | 260° |
| 2026-04-13 19:12 | 41.93439 | 108.96243 | 38036 ft | 425 kts | 260° |
| 2026-04-13 19:12 | 41.92447 | 108.88454 | 38042 ft | 426 kts | 260° |
| 2026-04-13 19:13 | 41.91445 | 108.80625 | 38038 ft | 426 kts | 260° |
| 2026-04-13 19:13 | 41.90436 | 108.72790 | 38035 ft | 426 kts | 260° |
| 2026-04-13 19:14 | 41.89423 | 108.64957 | 38044 ft | 426 kts | 260° |
| 2026-04-13 19:14 | 41.88405 | 108.57132 | 38043 ft | 426 kts | 260° |
| 2026-04-13 19:15 | 41.87381 | 108.49313 | 38045 ft | 426 kts | 260° |
| 2026-04-13 19:15 | 41.86352 | 108.41492 | 38047 ft | 426 kts | 260° |
| 2026-04-13 19:16 | 41.85318 | 108.33676 | 38049 ft | 425 kts | 260° |
| 2026-04-13 19:16 | 41.84280 | 108.25874 | 38042 ft | 425 kts | 260° |
| 2026-04-13 19:17 | 41.83235 | 108.18063 | 38047 ft | 425 kts | 260° |
| 2026-04-13 19:17 | 41.82187 | 108.10266 | 38048 ft | 425 kts | 260° |
| 2026-04-13 19:18 | 41.81135 | 108.02481 | 38045 ft | 424 kts | 260° |
| 2026-04-13 19:18 | 41.80256 | 107.96006 | 38046 ft | 424 kts | 260° |
| 2026-04-13 19:19 | 41.79195 | 107.88234 | 38048 ft | 424 kts | 260° |
| 2026-04-13 19:19 | 41.78127 | 107.80458 | 38045 ft | 425 kts | 260° |
| 2026-04-13 19:20 | 41.77045 | 107.72604 | 38045 ft | 433 kts | 260° |
| 2026-04-13 19:20 | 41.75935 | 107.64599 | 38047 ft | 438 kts | 260° |
| 2026-04-13 19:21 | 41.74815 | 107.56568 | 38051 ft | 439 kts | 260° |
| 2026-04-13 19:21 | 41.73689 | 107.48540 | 38049 ft | 439 kts | 260° |
| 2026-04-13 19:22 | 41.72561 | 107.40533 | 38048 ft | 439 kts | 260° |
| 2026-04-13 19:22 | 41.71424 | 107.32509 | 38050 ft | 439 kts | 260° |
| 2026-04-13 19:23 | 41.70283 | 107.24493 | 38050 ft | 439 kts | 260° |
| 2026-04-13 19:23 | 41.69135 | 107.16472 | 38049 ft | 439 kts | 260° |
| 2026-04-13 19:24 | 41.67987 | 107.08492 | 38054 ft | 440 kts | 260° |
| 2026-04-13 19:24 | 41.66824 | 107.00451 | 38052 ft | 440 kts | 260° |
| 2026-04-13 19:25 | 41.65654 | 106.92407 | 38060 ft | 441 kts | 260° |
| 2026-04-13 19:25 | 41.64469 | 106.84293 | 38065 ft | 442 kts | 260° |
| 2026-04-13 19:26 | 41.63286 | 106.76245 | 38059 ft | 442 kts | 260° |
| 2026-04-13 19:26 | 41.62101 | 106.68224 | 38064 ft | 443 kts | 260° |
| 2026-04-13 19:27 | 41.60902 | 106.60143 | 38065 ft | 443 kts | 260° |
| 2026-04-13 19:27 | 41.59697 | 106.52066 | 38074 ft | 443 kts | 260° |
| 2026-04-13 19:28 | 41.58487 | 106.43994 | 38075 ft | 444 kts | 260° |
| 2026-04-13 19:28 | 41.57271 | 106.35917 | 38077 ft | 443 kts | 260° |
| 2026-04-13 19:29 | 41.56050 | 106.27856 | 38079 ft | 443 kts | 260° |
| 2026-04-13 19:29 | 41.54823 | 106.19797 | 38073 ft | 443 kts | 260° |
| 2026-04-13 19:30 | 41.53563 | 106.11756 | 38073 ft | 443 kts | 258° |
| 2026-04-13 19:30 | 41.51549 | 106.03970 | 38078 ft | 445 kts | 251° |
| 2026-04-13 19:31 | 41.49260 | 105.96311 | 38075 ft | 444 kts | 251° |
| 2026-04-13 19:31 | 41.46930 | 105.88676 | 38078 ft | 444 kts | 251° |
| 2026-04-13 19:32 | 41.44611 | 105.81062 | 38080 ft | 443 kts | 251° |
| 2026-04-13 19:32 | 41.42297 | 105.73450 | 38076 ft | 443 kts | 251° |
| 2026-04-13 19:33 | 41.39985 | 105.65855 | 38076 ft | 442 kts | 251° |
| 2026-04-13 19:34 | 41.36508 | 105.54509 | 38073 ft | 441 kts | 251° |
| 2026-04-13 19:34 | 41.34158 | 105.46966 | 38072 ft | 441 kts | 251° |
| 2026-04-13 19:35 | 41.31806 | 105.39439 | 38073 ft | 440 kts | 251° |
| 2026-04-13 19:35 | 41.29459 | 105.31927 | 38076 ft | 440 kts | 251° |
| 2026-04-13 19:36 | 41.27106 | 105.24411 | 38077 ft | 440 kts | 250° |
| 2026-04-13 19:36 | 41.24770 | 105.16968 | 38076 ft | 440 kts | 250° |
| 2026-04-13 19:37 | 41.22405 | 105.09459 | 38079 ft | 440 kts | 250° |
| 2026-04-13 19:37 | 41.20037 | 105.01958 | 38078 ft | 440 kts | 250° |
| 2026-04-13 19:38 | 41.17666 | 104.94468 | 38080 ft | 440 kts | 250° |
| 2026-04-13 19:38 | 41.15287 | 104.86977 | 38079 ft | 441 kts | 250° |
| 2026-04-13 19:39 | 41.12900 | 104.79479 | 38084 ft | 441 kts | 250° |
| 2026-04-13 19:39 | 41.10511 | 104.71995 | 38079 ft | 441 kts | 250° |
| 2026-04-13 19:40 | 41.08142 | 104.64490 | 38088 ft | 441 kts | 251° |
| 2026-04-13 19:40 | 41.05867 | 104.56951 | 38087 ft | 441 kts | 251° |
| 2026-04-13 19:41 | 41.03592 | 104.49415 | 38087 ft | 441 kts | 251° |
| 2026-04-13 19:41 | 41.01327 | 104.41901 | 38086 ft | 433 kts | 253° |
| 2026-04-13 19:42 | 40.99998 | 104.34249 | 38287 ft | 425 kts | 266° |
| 2026-04-13 19:42 | 40.99917 | 104.30354 | 38620 ft | 422 kts | 272° |
| 2026-04-13 19:42 | 41.00237 | 104.26503 | 38865 ft | 421 kts | 279° |
| 2026-04-13 19:42 | 41.00956 | 104.22752 | 39022 ft | 423 kts | 287° |
| 2026-04-13 19:43 | 41.02014 | 104.19102 | 39183 ft | 424 kts | 290° |
| 2026-04-13 19:43 | 41.03169 | 104.15501 | 39342 ft | 425 kts | 290° |
| 2026-04-13 19:43 | 41.04355 | 104.11912 | 39504 ft | 425 kts | 291° |
| 2026-04-13 19:43 | 41.05551 | 104.08325 | 39650 ft | 426 kts | 291° |
| 2026-04-13 19:44 | 41.06737 | 104.04751 | 39781 ft | 427 kts | 291° |
| 2026-04-13 19:44 | 41.07930 | 104.01127 | 39918 ft | 427 kts | 290° |
| 2026-04-13 19:44 | 41.09097 | 103.97555 | 40047 ft | 428 kts | 290° |
| 2026-04-13 19:44 | 41.10291 | 103.93883 | 40091 ft | 429 kts | 290° |
| 2026-04-13 19:45 | 41.12640 | 103.86620 | 40097 ft | 428 kts | 290° |
| 2026-04-13 19:45 | 41.14982 | 103.79360 | 40093 ft | 428 kts | 290° |
| 2026-04-13 19:46 | 41.17309 | 103.72127 | 40094 ft | 428 kts | 290° |
| 2026-04-13 19:46 | 41.19644 | 103.64850 | 40093 ft | 428 kts | 290° |
| 2026-04-13 19:47 | 41.21978 | 103.57558 | 40100 ft | 429 kts | 290° |
| 2026-04-13 19:47 | 41.24303 | 103.50274 | 40101 ft | 429 kts | 290° |
| 2026-04-13 19:48 | 41.26629 | 103.42971 | 40099 ft | 429 kts | 290° |
| 2026-04-13 19:48 | 41.28949 | 103.35665 | 40098 ft | 429 kts | 290° |
| 2026-04-13 19:49 | 41.31283 | 103.28296 | 40100 ft | 429 kts | 290° |
| 2026-04-13 19:49 | 41.33580 | 103.21023 | 40100 ft | 429 kts | 290° |
| 2026-04-13 19:50 | 41.35885 | 103.13702 | 40098 ft | 429 kts | 290° |
| 2026-04-13 19:50 | 41.38188 | 103.06370 | 40091 ft | 429 kts | 290° |
| 2026-04-13 19:51 | 41.40503 | 102.98981 | 40097 ft | 430 kts | 290° |
| 2026-04-13 19:51 | 41.42783 | 102.91682 | 40096 ft | 430 kts | 290° |
| 2026-04-13 19:52 | 41.45080 | 102.84310 | 40091 ft | 430 kts | 290° |
| 2026-04-13 19:52 | 41.47346 | 102.77015 | 40094 ft | 429 kts | 290° |
| 2026-04-13 19:53 | 41.49648 | 102.69587 | 40097 ft | 429 kts | 290° |
| 2026-04-13 19:53 | 41.51903 | 102.62286 | 40097 ft | 429 kts | 290° |
| 2026-04-13 19:54 | 41.54175 | 102.54914 | 40094 ft | 429 kts | 290° |
| 2026-04-13 19:54 | 41.56438 | 102.47548 | 40091 ft | 429 kts | 290° |
| 2026-04-13 19:55 | 41.58697 | 102.40175 | 40091 ft | 429 kts | 290° |
| 2026-04-13 19:55 | 41.60954 | 102.32790 | 40092 ft | 429 kts | 290° |
| 2026-04-13 19:56 | 41.63203 | 102.25407 | 40091 ft | 429 kts | 289° |
| 2026-04-13 19:56 | 41.65463 | 102.17969 | 40090 ft | 429 kts | 289° |
| 2026-04-13 19:57 | 41.67703 | 102.10574 | 40090 ft | 429 kts | 289° |
| 2026-04-13 19:57 | 41.69940 | 102.03171 | 40088 ft | 429 kts | 289° |
| 2026-04-13 19:58 | 41.72149 | 101.95841 | 40088 ft | 429 kts | 289° |
| 2026-04-13 19:58 | 41.74390 | 101.88380 | 40091 ft | 429 kts | 289° |
| 2026-04-13 19:59 | 41.76611 | 101.80967 | 40086 ft | 429 kts | 289° |
| 2026-04-13 19:59 | 41.78810 | 101.73606 | 40090 ft | 429 kts | 289° |
| 2026-04-13 20:00 | 41.81033 | 101.66146 | 40084 ft | 429 kts | 289° |
| 2026-04-13 20:00 | 41.83244 | 101.58701 | 40080 ft | 430 kts | 289° |
| 2026-04-13 20:01 | 41.85445 | 101.51269 | 40078 ft | 430 kts | 289° |
| 2026-04-13 20:01 | 41.87300 | 101.44991 | 40082 ft | 430 kts | 289° |
| 2026-04-13 20:02 | 41.89489 | 101.37562 | 40085 ft | 430 kts | 289° |
| 2026-04-13 20:02 | 41.91691 | 101.30066 | 40082 ft | 431 kts | 289° |
| 2026-04-13 20:03 | 41.93886 | 101.22574 | 40082 ft | 431 kts | 289° |
| 2026-04-13 20:03 | 41.96069 | 101.15101 | 40081 ft | 431 kts | 289° |
| 2026-04-13 20:04 | 41.98147 | 101.07507 | 40084 ft | 430 kts | 283° |
| 2026-04-13 20:04 | 41.98974 | 100.99618 | 40090 ft | 427 kts | 271° |
| 2026-04-13 20:05 | 41.98991 | 100.91573 | 40085 ft | 428 kts | 269° |
| 2026-04-13 20:05 | 41.98922 | 100.83647 | 40085 ft | 428 kts | 269° |
| 2026-04-13 20:06 | 41.98855 | 100.75646 | 40089 ft | 428 kts | 269° |
| 2026-04-13 20:06 | 41.98798 | 100.67639 | 40088 ft | 428 kts | 269° |
| 2026-04-13 20:07 | 41.98740 | 100.59689 | 40086 ft | 428 kts | 269° |
| 2026-04-13 20:07 | 41.98675 | 100.51630 | 40088 ft | 428 kts | 269° |
| 2026-04-13 20:08 | 41.98605 | 100.43654 | 40087 ft | 428 kts | 269° |
| 2026-04-13 20:08 | 41.98529 | 100.35649 | 40088 ft | 428 kts | 269° |
| 2026-04-13 20:09 | 41.98447 | 100.27587 | 40091 ft | 428 kts | 269° |
| 2026-04-13 20:09 | 41.98359 | 100.19584 | 40091 ft | 429 kts | 269° |
| 2026-04-13 20:10 | 41.98266 | 100.11558 | 40090 ft | 429 kts | 269° |
| 2026-04-13 20:10 | 41.98168 | 100.03558 | 40091 ft | 429 kts | 269° |
| 2026-04-13 20:11 | 41.98064 | 99.95577 | 40094 ft | 429 kts | 269° |
| 2026-04-13 20:11 | 41.97953 | 99.87498 | 40092 ft | 429 kts | 269° |
| 2026-04-13 20:12 | 41.97838 | 99.79457 | 40095 ft | 429 kts | 269° |
| 2026-04-13 20:12 | 41.97716 | 99.71424 | 40099 ft | 430 kts | 269° |
| 2026-04-13 20:13 | 41.97590 | 99.63398 | 40105 ft | 430 kts | 269° |
| 2026-04-13 20:13 | 41.97457 | 99.55362 | 40103 ft | 430 kts | 269° |
| 2026-04-13 20:14 | 41.97320 | 99.47336 | 40101 ft | 430 kts | 269° |
| 2026-04-13 20:14 | 41.97176 | 99.39312 | 40104 ft | 430 kts | 269° |
| 2026-04-13 20:15 | 41.97028 | 99.31300 | 40109 ft | 430 kts | 269° |
| 2026-04-13 20:15 | 41.96873 | 99.23266 | 40108 ft | 430 kts | 269° |
| 2026-04-13 20:16 | 41.96712 | 99.15234 | 40115 ft | 429 kts | 269° |
| 2026-04-13 20:16 | 41.96546 | 99.07212 | 40118 ft | 429 kts | 269° |
| 2026-04-13 20:17 | 41.96375 | 98.99189 | 40118 ft | 429 kts | 269° |
| 2026-04-13 20:17 | 41.96198 | 98.91182 | 40116 ft | 429 kts | 269° |
| 2026-04-13 20:18 | 41.96016 | 98.83166 | 40121 ft | 429 kts | 269° |
| 2026-04-13 20:18 | 41.95827 | 98.75149 | 40123 ft | 429 kts | 268° |
| 2026-04-13 20:19 | 41.95634 | 98.67136 | 40122 ft | 430 kts | 268° |
| 2026-04-13 20:19 | 41.95434 | 98.59109 | 40131 ft | 430 kts | 268° |
| 2026-04-13 20:20 | 41.95230 | 98.51090 | 40127 ft | 430 kts | 268° |
| 2026-04-13 20:20 | 41.95019 | 98.43055 | 40131 ft | 430 kts | 268° |
| 2026-04-13 20:21 | 41.94802 | 98.35024 | 40133 ft | 430 kts | 268° |
| 2026-04-13 20:21 | 41.94582 | 98.27044 | 40133 ft | 431 kts | 268° |
| 2026-04-13 20:22 | 41.94354 | 98.19010 | 40135 ft | 431 kts | 268° |
| 2026-04-13 20:22 | 41.94121 | 98.10961 | 40139 ft | 431 kts | 268° |
| 2026-04-13 20:23 | 41.93881 | 98.02919 | 40140 ft | 431 kts | 268° |
| 2026-04-13 20:23 | 41.93637 | 97.94872 | 40142 ft | 431 kts | 268° |
| 2026-04-13 20:24 | 41.93386 | 97.86819 | 40144 ft | 432 kts | 268° |
| 2026-04-13 20:24 | 41.93129 | 97.78768 | 40144 ft | 432 kts | 268° |
| 2026-04-13 20:25 | 41.92866 | 97.70663 | 40143 ft | 432 kts | 268° |
| 2026-04-13 20:25 | 41.92598 | 97.62612 | 40145 ft | 432 kts | 268° |
| 2026-04-13 20:26 | 41.92326 | 97.54601 | 40141 ft | 432 kts | 268° |
| 2026-04-13 20:26 | 41.92045 | 97.46492 | 40140 ft | 432 kts | 268° |
| 2026-04-13 20:27 | 41.91763 | 97.38501 | 40140 ft | 432 kts | 268° |
| 2026-04-13 20:27 | 41.91472 | 97.30449 | 40133 ft | 432 kts | 268° |
| 2026-04-13 20:28 | 41.91177 | 97.22403 | 40136 ft | 431 kts | 268° |
| 2026-04-13 20:28 | 41.90876 | 97.14362 | 40132 ft | 431 kts | 268° |
| 2026-04-13 20:29 | 41.90569 | 97.06323 | 40128 ft | 431 kts | 268° |
| 2026-04-13 20:29 | 41.90257 | 96.98288 | 40128 ft | 431 kts | 268° |
| 2026-04-13 20:30 | 41.89939 | 96.90252 | 40131 ft | 431 kts | 268° |
| 2026-04-13 20:30 | 41.89616 | 96.82232 | 40129 ft | 431 kts | 268° |
| 2026-04-13 20:31 | 41.89287 | 96.74200 | 40129 ft | 431 kts | 267° |
| 2026-04-13 20:31 | 41.88953 | 96.66174 | 40129 ft | 431 kts | 267° |
| 2026-04-13 20:32 | 41.88613 | 96.58153 | 40130 ft | 431 kts | 267° |
| 2026-04-13 20:32 | 41.88267 | 96.50117 | 40130 ft | 431 kts | 267° |
| 2026-04-13 20:33 | 41.87916 | 96.42087 | 40132 ft | 431 kts | 267° |
| 2026-04-13 20:33 | 41.87559 | 96.34049 | 40128 ft | 431 kts | 267° |
| 2026-04-13 20:34 | 41.87196 | 96.26021 | 40137 ft | 431 kts | 267° |
| 2026-04-13 20:34 | 41.86942 | 96.17970 | 40134 ft | 431 kts | 270° |
| 2026-04-13 20:35 | 41.86956 | 96.09929 | 40137 ft | 432 kts | 271° |
| 2026-04-13 20:35 | 41.86974 | 96.01871 | 40136 ft | 432 kts | 270° |
| 2026-04-13 20:36 | 41.86942 | 95.93861 | 40138 ft | 432 kts | 270° |
| 2026-04-13 20:36 | 41.86881 | 95.85805 | 40135 ft | 432 kts | 270° |
| 2026-04-13 20:37 | 41.86812 | 95.77737 | 40133 ft | 432 kts | 270° |
| 2026-04-13 20:37 | 41.86738 | 95.69670 | 40133 ft | 433 kts | 270° |
| 2026-04-13 20:38 | 41.86660 | 95.61608 | 40134 ft | 433 kts | 270° |
| 2026-04-13 20:38 | 41.86577 | 95.53527 | 40133 ft | 433 kts | 270° |
| 2026-04-13 20:39 | 41.86488 | 95.45443 | 40128 ft | 433 kts | 270° |
| 2026-04-13 20:39 | 41.86394 | 95.37366 | 40125 ft | 433 kts | 270° |
| 2026-04-13 20:40 | 41.86356 | 95.29288 | 40129 ft | 433 kts | 273° |
| 2026-04-13 20:40 | 41.87424 | 95.21353 | 40125 ft | 434 kts | 287° |
| 2026-04-13 20:41 | 41.90142 | 95.14116 | 40126 ft | 439 kts | 303° |
| 2026-04-13 20:41 | 41.94048 | 95.07773 | 40122 ft | 442 kts | 308° |
| 2026-04-13 20:42 | 41.98133 | 95.01610 | 40115 ft | 442 kts | 308° |
| 2026-04-13 20:42 | 42.01539 | 94.96473 | 40115 ft | 442 kts | 308° |
| 2026-04-13 20:43 | 42.06266 | 94.89263 | 40112 ft | 442 kts | 308° |
| 2026-04-13 20:43 | 42.10323 | 94.83025 | 40111 ft | 442 kts | 308° |
| 2026-04-13 20:44 | 42.13712 | 94.77801 | 40108 ft | 442 kts | 308° |
| 2026-04-13 20:44 | 42.17763 | 94.71546 | 40107 ft | 443 kts | 308° |
| 2026-04-13 20:45 | 42.21806 | 94.65292 | 40105 ft | 442 kts | 308° |
| 2026-04-13 20:46 | 42.27839 | 94.55937 | 40101 ft | 442 kts | 308° |
| 2026-04-13 20:46 | 42.31874 | 94.49663 | 40100 ft | 443 kts | 307° |
| 2026-04-13 20:47 | 42.35939 | 94.43330 | 40100 ft | 443 kts | 307° |
| 2026-04-13 20:47 | 42.39964 | 94.37045 | 40094 ft | 443 kts | 307° |
| 2026-04-13 20:48 | 42.43968 | 94.30778 | 40096 ft | 443 kts | 307° |
| 2026-04-13 20:48 | 42.47992 | 94.24468 | 40096 ft | 443 kts | 307° |
| 2026-04-13 20:49 | 42.52015 | 94.18145 | 40097 ft | 443 kts | 307° |
| 2026-04-13 20:49 | 42.56032 | 94.11818 | 40092 ft | 443 kts | 307° |
| 2026-04-13 20:50 | 42.60044 | 94.05486 | 40089 ft | 443 kts | 307° |
| 2026-04-13 20:50 | 42.64054 | 93.99143 | 40094 ft | 442 kts | 307° |
| 2026-04-13 20:51 | 42.68060 | 93.92793 | 40092 ft | 442 kts | 307° |
| 2026-04-13 20:51 | 42.72064 | 93.86433 | 40091 ft | 442 kts | 307° |
| 2026-04-13 20:52 | 42.76056 | 93.80078 | 40092 ft | 442 kts | 307° |
| 2026-04-13 20:52 | 42.80046 | 93.73710 | 40094 ft | 442 kts | 307° |
| 2026-04-13 20:53 | 42.83818 | 93.67112 | 40095 ft | 439 kts | 299° |
| 2026-04-13 20:53 | 42.86429 | 93.59651 | 40091 ft | 436 kts | 290° |
| 2026-04-13 20:54 | 42.88659 | 93.51949 | 40090 ft | 437 kts | 289° |
| 2026-04-13 20:54 | 42.90841 | 93.44207 | 40088 ft | 437 kts | 289° |
| 2026-04-13 20:55 | 42.93033 | 93.36451 | 40089 ft | 438 kts | 289° |
| 2026-04-13 20:55 | 42.95228 | 93.28707 | 40085 ft | 438 kts | 289° |
| 2026-04-13 20:56 | 42.97425 | 93.20949 | 40082 ft | 438 kts | 289° |
| 2026-04-13 20:56 | 42.99621 | 93.13168 | 40083 ft | 439 kts | 289° |
| 2026-04-13 20:57 | 43.01808 | 93.05392 | 40083 ft | 439 kts | 289° |
| 2026-04-13 20:57 | 43.03994 | 92.97593 | 40081 ft | 439 kts | 289° |
| 2026-04-13 20:58 | 43.06172 | 92.89798 | 40081 ft | 439 kts | 289° |
| 2026-04-13 20:58 | 43.08350 | 92.81979 | 40084 ft | 439 kts | 289° |
| 2026-04-13 20:59 | 43.10520 | 92.74165 | 40079 ft | 439 kts | 289° |
| 2026-04-13 20:59 | 43.12684 | 92.66351 | 40081 ft | 439 kts | 289° |
| 2026-04-13 21:00 | 43.14844 | 92.58523 | 40081 ft | 439 kts | 289° |
| 2026-04-13 21:00 | 43.17002 | 92.50693 | 40080 ft | 439 kts | 289° |
| 2026-04-13 21:01 | 43.19141 | 92.42855 | 40085 ft | 439 kts | 289° |
| 2026-04-13 21:01 | 43.21272 | 92.35026 | 40083 ft | 438 kts | 289° |
| 2026-04-13 21:02 | 43.23400 | 92.27193 | 40067 ft | 438 kts | 289° |
| 2026-04-13 21:02 | 43.25520 | 92.19372 | 40074 ft | 438 kts | 289° |
| 2026-04-13 21:03 | 43.27633 | 92.11548 | 40080 ft | 437 kts | 289° |
| 2026-04-13 21:03 | 43.29743 | 92.03713 | 40086 ft | 437 kts | 289° |
| 2026-04-13 21:04 | 43.31844 | 91.95893 | 40085 ft | 437 kts | 289° |
| 2026-04-13 21:04 | 43.34029 | 91.88118 | 40075 ft | 436 kts | 290° |
| 2026-04-13 21:05 | 43.36257 | 91.80364 | 40090 ft | 436 kts | 290° |
| 2026-04-13 21:05 | 43.38463 | 91.72606 | 40083 ft | 436 kts | 290° |
| 2026-04-13 21:06 | 43.40650 | 91.64845 | 40087 ft | 435 kts | 290° |
| 2026-04-13 21:06 | 43.42824 | 91.57085 | 40090 ft | 435 kts | 290° |
| 2026-04-13 21:07 | 43.45010 | 91.49322 | 40096 ft | 435 kts | 290° |
| 2026-04-13 21:07 | 43.47289 | 91.41601 | 40094 ft | 435 kts | 291° |
| 2026-04-13 21:08 | 43.49578 | 91.33901 | 40095 ft | 435 kts | 291° |
| 2026-04-13 21:08 | 43.51837 | 91.26230 | 40105 ft | 435 kts | 291° |
| 2026-04-13 21:09 | 43.54095 | 91.18501 | 40110 ft | 435 kts | 290° |
| 2026-04-13 21:09 | 43.56347 | 91.10759 | 40114 ft | 435 kts | 290° |
| 2026-04-13 21:10 | 43.58597 | 91.03001 | 40117 ft | 435 kts | 290° |
| 2026-04-13 21:10 | 43.60837 | 90.95261 | 40117 ft | 435 kts | 290° |
| 2026-04-13 21:11 | 43.63076 | 90.87498 | 40119 ft | 436 kts | 290° |
| 2026-04-13 21:11 | 43.65314 | 90.79714 | 40125 ft | 436 kts | 290° |
| 2026-04-13 21:12 | 43.67548 | 90.71921 | 40127 ft | 436 kts | 290° |
| 2026-04-13 21:12 | 43.69776 | 90.64126 | 40133 ft | 437 kts | 290° |
| 2026-04-13 21:13 | 43.72012 | 90.56335 | 40138 ft | 437 kts | 290° |
| 2026-04-13 21:13 | 43.74255 | 90.48520 | 40134 ft | 437 kts | 290° |
| 2026-04-13 21:14 | 43.76494 | 90.40693 | 40135 ft | 437 kts | 290° |
| 2026-04-13 21:14 | 43.78726 | 90.32868 | 40139 ft | 437 kts | 290° |
| 2026-04-13 21:15 | 43.80953 | 90.25031 | 40142 ft | 437 kts | 290° |
| 2026-04-13 21:15 | 43.83168 | 90.17210 | 40143 ft | 437 kts | 290° |
| 2026-04-13 21:16 | 43.85388 | 90.09350 | 40146 ft | 437 kts | 290° |
| 2026-04-13 21:16 | 43.87597 | 90.01503 | 40145 ft | 437 kts | 290° |
| 2026-04-13 21:17 | 43.89804 | 89.93637 | 40147 ft | 437 kts | 290° |
| 2026-04-13 21:17 | 43.92003 | 89.85778 | 40143 ft | 437 kts | 290° |
| 2026-04-13 21:18 | 43.94195 | 89.77918 | 40143 ft | 437 kts | 290° |
| 2026-04-13 21:18 | 43.96388 | 89.70027 | 40144 ft | 437 kts | 290° |
| 2026-04-13 21:19 | 43.98478 | 89.62163 | 40136 ft | 437 kts | 285° |
| 2026-04-13 21:19 | 43.99707 | 89.53909 | 40133 ft | 437 kts | 280° |
| 2026-04-13 21:20 | 44.00684 | 89.45565 | 40131 ft | 437 kts | 279° |
| 2026-04-13 21:20 | 44.01630 | 89.37168 | 40127 ft | 438 kts | 279° |
| 2026-04-13 21:21 | 44.02575 | 89.28805 | 40130 ft | 438 kts | 279° |
| 2026-04-13 21:21 | 44.03515 | 89.20515 | 40124 ft | 438 kts | 279° |
| 2026-04-13 21:22 | 44.04459 | 89.12156 | 40120 ft | 438 kts | 279° |
| 2026-04-13 21:22 | 44.05397 | 89.03794 | 40120 ft | 438 kts | 279° |
| 2026-04-13 21:23 | 44.06327 | 88.95432 | 40116 ft | 438 kts | 279° |
| 2026-04-13 21:23 | 44.07251 | 88.87076 | 40109 ft | 438 kts | 279° |
| 2026-04-13 21:24 | 44.08187 | 88.78718 | 40113 ft | 437 kts | 279° |
| 2026-04-13 21:24 | 44.09168 | 88.70398 | 40112 ft | 437 kts | 280° |
| 2026-04-13 21:25 | 44.10154 | 88.62023 | 40113 ft | 437 kts | 279° |
| 2026-04-13 21:25 | 44.11119 | 88.53689 | 40109 ft | 437 kts | 279° |
| 2026-04-13 21:26 | 44.12078 | 88.45315 | 40117 ft | 437 kts | 279° |
| 2026-04-13 21:26 | 44.13026 | 88.36977 | 40116 ft | 437 kts | 279° |
| 2026-04-13 21:27 | 44.13973 | 88.28599 | 40112 ft | 437 kts | 279° |
| 2026-04-13 21:27 | 44.14906 | 88.20289 | 40109 ft | 437 kts | 279° |
| 2026-04-13 21:28 | 44.15688 | 88.13278 | 40112 ft | 438 kts | 279° |
| 2026-04-13 21:28 | 44.16201 | 88.04853 | 40111 ft | 439 kts | 269° |
| 2026-04-13 21:29 | 44.15114 | 87.96472 | 40106 ft | 444 kts | 253° |
| 2026-04-13 21:29 | 44.12235 | 87.88807 | 40108 ft | 451 kts | 238° |
| 2026-04-13 21:30 | 44.08478 | 87.81781 | 40106 ft | 454 kts | 236° |
| 2026-04-13 21:30 | 44.04623 | 87.74827 | 40111 ft | 454 kts | 236° |
| 2026-04-13 21:31 | 44.00783 | 87.67860 | 40116 ft | 454 kts | 237° |
| 2026-04-13 21:31 | 43.96962 | 87.60884 | 40120 ft | 454 kts | 237° |
| 2026-04-13 21:32 | 43.93133 | 87.53889 | 40117 ft | 454 kts | 237° |
| 2026-04-13 21:32 | 43.89375 | 87.46864 | 40116 ft | 453 kts | 240° |
| 2026-04-13 21:33 | 43.86014 | 87.39502 | 40129 ft | 451 kts | 242° |
| 2026-04-13 21:33 | 43.82723 | 87.32103 | 40109 ft | 452 kts | 242° |
| 2026-04-13 21:34 | 43.77654 | 87.21082 | 40116 ft | 452 kts | 241° |
| 2026-04-13 21:34 | 43.74237 | 87.13778 | 40113 ft | 453 kts | 240° |
| 2026-04-13 21:35 | 43.70806 | 87.06471 | 40120 ft | 453 kts | 240° |
| 2026-04-13 21:36 | 43.65656 | 86.95534 | 40124 ft | 453 kts | 240° |
| 2026-04-13 21:36 | 43.62213 | 86.88241 | 40130 ft | 453 kts | 240° |
| 2026-04-13 21:37 | 43.58778 | 86.80952 | 40131 ft | 453 kts | 242° |
| 2026-04-13 21:37 | 43.56176 | 86.73145 | 40133 ft | 446 kts | 256° |
| 2026-04-13 21:38 | 43.55315 | 86.64823 | 40142 ft | 441 kts | 272° |
| 2026-04-13 21:38 | 43.55988 | 86.56437 | 40138 ft | 440 kts | 279° |
| 2026-04-13 21:39 | 43.56977 | 86.48029 | 40148 ft | 441 kts | 279° |
| 2026-04-13 21:39 | 43.57932 | 86.39678 | 40153 ft | 442 kts | 279° |
| 2026-04-13 21:40 | 43.58817 | 86.31341 | 40144 ft | 442 kts | 278° |
| 2026-04-13 21:40 | 43.59694 | 86.22936 | 40153 ft | 443 kts | 278° |
| 2026-04-13 21:41 | 43.60569 | 86.14521 | 40163 ft | 443 kts | 278° |
| 2026-04-13 21:41 | 43.61443 | 86.06114 | 40166 ft | 443 kts | 278° |
| 2026-04-13 21:42 | 43.62356 | 85.97710 | 40160 ft | 443 kts | 279° |
| 2026-04-13 21:42 | 43.63283 | 85.89304 | 40163 ft | 443 kts | 279° |
| 2026-04-13 21:43 | 43.64183 | 85.80899 | 40169 ft | 442 kts | 278° |
| 2026-04-13 21:43 | 43.64871 | 85.72445 | 40169 ft | 443 kts | 276° |
| 2026-04-13 21:44 | 43.65472 | 85.63986 | 40175 ft | 443 kts | 276° |
| 2026-04-13 21:44 | 43.66101 | 85.55528 | 40178 ft | 444 kts | 276° |
| 2026-04-13 21:45 | 43.66751 | 85.47054 | 40177 ft | 443 kts | 276° |
| 2026-04-13 21:45 | 43.67402 | 85.38599 | 40180 ft | 443 kts | 276° |
| 2026-04-13 21:46 | 43.68049 | 85.30127 | 40184 ft | 443 kts | 276° |
| 2026-04-13 21:46 | 43.68685 | 85.21658 | 40189 ft | 444 kts | 276° |
| 2026-04-13 21:47 | 43.68579 | 85.13135 | 40190 ft | 446 kts | 262° |
| 2026-04-13 21:47 | 43.66732 | 85.04963 | 40187 ft | 450 kts | 246° |
| 2026-04-13 21:48 | 43.63535 | 84.97563 | 40195 ft | 453 kts | 240° |
| 2026-04-13 21:48 | 43.60078 | 84.90283 | 40188 ft | 454 kts | 239° |
| 2026-04-13 21:49 | 43.56620 | 84.83022 | 40198 ft | 454 kts | 240° |
| 2026-04-13 21:49 | 43.53173 | 84.75722 | 40190 ft | 454 kts | 240° |
| 2026-04-13 21:50 | 43.49734 | 84.68424 | 40195 ft | 454 kts | 240° |
| 2026-04-13 21:50 | 43.46287 | 84.61127 | 40192 ft | 454 kts | 239° |
| 2026-04-13 21:51 | 43.42839 | 84.53842 | 40188 ft | 454 kts | 239° |
| 2026-04-13 21:51 | 43.39382 | 84.46555 | 40191 ft | 455 kts | 239° |
| 2026-04-13 21:52 | 43.36520 | 84.38859 | 40196 ft | 451 kts | 253° |
| 2026-04-13 21:52 | 43.35364 | 84.30449 | 40191 ft | 449 kts | 269° |
| 2026-04-13 21:53 | 43.35822 | 84.21906 | 40193 ft | 449 kts | 276° |
| 2026-04-13 21:53 | 43.36619 | 84.13390 | 40195 ft | 450 kts | 277° |
| 2026-04-13 21:54 | 43.37425 | 84.04854 | 40204 ft | 451 kts | 277° |
| 2026-04-13 21:54 | 43.38194 | 83.96300 | 40115 ft | 451 kts | 276° |
| 2026-04-13 21:55 | 43.38944 | 83.87730 | 40105 ft | 451 kts | 276° |
| 2026-04-13 21:55 | 43.39684 | 83.79169 | 40114 ft | 451 kts | 276° |
| 2026-04-13 21:56 | 43.40420 | 83.70591 | 40116 ft | 451 kts | 276° |
| 2026-04-13 21:56 | 43.41149 | 83.62024 | 40117 ft | 451 kts | 276° |
| 2026-04-13 21:57 | 43.41872 | 83.53460 | 40116 ft | 451 kts | 276° |
| 2026-04-13 21:57 | 43.42588 | 83.44902 | 40118 ft | 450 kts | 276° |
| 2026-04-13 21:58 | 43.43290 | 83.36410 | 40125 ft | 449 kts | 276° |
| 2026-04-13 21:58 | 43.43706 | 83.27836 | 40117 ft | 449 kts | 272° |
| 2026-04-13 21:59 | 43.43924 | 83.19261 | 40114 ft | 448 kts | 272° |
| 2026-04-13 21:59 | 43.44176 | 83.10697 | 40101 ft | 448 kts | 273° |
| 2026-04-13 22:00 | 43.44467 | 83.02140 | 40100 ft | 448 kts | 273° |
| 2026-04-13 22:00 | 43.44766 | 82.93579 | 40098 ft | 447 kts | 273° |
| 2026-04-13 22:01 | 43.45058 | 82.85030 | 40097 ft | 447 kts | 273° |
| 2026-04-13 22:01 | 43.45340 | 82.76497 | 40087 ft | 446 kts | 273° |
| 2026-04-13 22:02 | 43.45616 | 82.67958 | 40084 ft | 446 kts | 273° |
| 2026-04-13 22:02 | 43.45885 | 82.59434 | 40082 ft | 446 kts | 273° |
| 2026-04-13 22:03 | 43.46148 | 82.50888 | 40072 ft | 446 kts | 273° |
| 2026-04-13 22:03 | 43.46404 | 82.42354 | 40068 ft | 447 kts | 273° |
| 2026-04-13 22:04 | 43.46655 | 82.33806 | 40077 ft | 447 kts | 273° |
| 2026-04-13 22:04 | 43.46899 | 82.25258 | 40077 ft | 447 kts | 272° |
| 2026-04-13 22:05 | 43.47137 | 82.16710 | 40079 ft | 447 kts | 272° |
| 2026-04-13 22:05 | 43.47368 | 82.08160 | 40075 ft | 447 kts | 272° |
| 2026-04-13 22:06 | 43.47592 | 81.99613 | 40076 ft | 447 kts | 272° |
| 2026-04-13 22:06 | 43.47811 | 81.91067 | 40081 ft | 447 kts | 272° |
| 2026-04-13 22:07 | 43.48023 | 81.82514 | 40081 ft | 447 kts | 272° |
| 2026-04-13 22:07 | 43.48229 | 81.73948 | 40089 ft | 448 kts | 272° |
| 2026-04-13 22:08 | 43.48431 | 81.65394 | 40085 ft | 448 kts | 272° |
| 2026-04-13 22:08 | 43.48613 | 81.56826 | 40079 ft | 448 kts | 272° |
| 2026-04-13 22:09 | 43.48780 | 81.48300 | 40077 ft | 448 kts | 272° |
| 2026-04-13 22:09 | 43.48946 | 81.39716 | 40077 ft | 449 kts | 272° |
| 2026-04-13 22:10 | 43.49094 | 81.31893 | 40079 ft | 449 kts | 272° |
| 2026-04-13 22:10 | 43.49249 | 81.23355 | 40076 ft | 449 kts | 272° |
| 2026-04-13 22:11 | 43.49400 | 81.14765 | 40076 ft | 449 kts | 272° |
| 2026-04-13 22:11 | 43.49542 | 81.06165 | 40073 ft | 449 kts | 272° |
| 2026-04-13 22:12 | 43.49680 | 80.97575 | 40069 ft | 449 kts | 271° |
| 2026-04-13 22:12 | 43.49811 | 80.88968 | 40068 ft | 449 kts | 271° |
| 2026-04-13 22:13 | 43.49936 | 80.80362 | 40071 ft | 449 kts | 271° |
| 2026-04-13 22:13 | 43.50056 | 80.71760 | 40072 ft | 449 kts | 272° |
| 2026-04-13 22:14 | 43.50283 | 80.64625 | 40068 ft | 449 kts | 274° |
| 2026-04-13 22:14 | 43.50662 | 80.56018 | 40066 ft | 449 kts | 274° |
| 2026-04-13 22:15 | 43.51020 | 80.47424 | 40067 ft | 450 kts | 274° |
| 2026-04-13 22:15 | 43.51347 | 80.38758 | 40066 ft | 450 kts | 273° |
| 2026-04-13 22:16 | 43.51654 | 80.30208 | 40060 ft | 449 kts | 273° |
| 2026-04-13 22:16 | 43.51956 | 80.21619 | 40059 ft | 450 kts | 273° |
| 2026-04-13 22:17 | 43.52252 | 80.13007 | 40056 ft | 450 kts | 273° |
| 2026-04-13 22:17 | 43.52543 | 80.04392 | 40058 ft | 450 kts | 273° |
| 2026-04-13 22:18 | 43.52828 | 79.95785 | 40054 ft | 450 kts | 273° |
| 2026-04-13 22:18 | 43.53146 | 79.87165 | 40056 ft | 450 kts | 276° |
| 2026-04-13 22:18 | 43.53636 | 79.82904 | 39878 ft | 450 kts | 283° |
| 2026-04-13 22:19 | 43.54554 | 79.78800 | 39637 ft | 449 kts | 291° |
| 2026-04-13 22:19 | 43.55910 | 79.74919 | 39397 ft | 450 kts | 298° |
| 2026-04-13 22:19 | 43.57496 | 79.71185 | 39193 ft | 451 kts | 300° |
| 2026-04-13 22:19 | 43.59142 | 79.67491 | 38958 ft | 452 kts | 300° |
| 2026-04-13 22:20 | 43.60810 | 79.63816 | 38715 ft | 452 kts | 300° |
| 2026-04-13 22:20 | 43.62481 | 79.60141 | 38428 ft | 452 kts | 300° |
| 2026-04-13 22:20 | 43.64138 | 79.56482 | 37874 ft | 449 kts | 300° |
| 2026-04-13 22:20 | 43.65783 | 79.52827 | 37249 ft | 447 kts | 300° |
| 2026-04-13 22:21 | 43.67415 | 79.49178 | 36590 ft | 446 kts | 300° |
| 2026-04-13 22:21 | 43.69037 | 79.45536 | 35910 ft | 446 kts | 300° |
| 2026-04-13 22:21 | 43.70656 | 79.41893 | 35222 ft | 446 kts | 300° |
| 2026-04-13 22:21 | 43.72284 | 79.38221 | 34439 ft | 448 kts | 300° |
| 2026-04-13 22:22 | 43.73912 | 79.34544 | 33590 ft | 451 kts | 300° |
| 2026-04-13 22:22 | 43.75546 | 79.30842 | 32739 ft | 452 kts | 300° |
| 2026-04-13 22:22 | 43.76920 | 79.26932 | 32034 ft | 449 kts | 289° |
| 2026-04-13 22:22 | 43.77685 | 79.22795 | 31516 ft | 444 kts | 278° |
| 2026-04-13 22:23 | 43.77913 | 79.18553 | 30956 ft | 440 kts | 272° |
| 2026-04-13 22:23 | 43.78010 | 79.14336 | 30391 ft | 437 kts | 272° |
| 2026-04-13 22:23 | 43.78095 | 79.10159 | 29809 ft | 434 kts | 272° |
| 2026-04-13 22:23 | 43.78178 | 79.05982 | 29231 ft | 430 kts | 272° |
| 2026-04-13 22:24 | 43.78257 | 79.01877 | 28691 ft | 426 kts | 272° |
| 2026-04-13 22:24 | 43.78333 | 78.97849 | 28172 ft | 422 kts | 272° |
| 2026-04-13 22:24 | 43.78408 | 78.93802 | 27627 ft | 418 kts | 272° |
| 2026-04-13 22:24 | 43.78480 | 78.89800 | 27099 ft | 415 kts | 272° |
| 2026-04-13 22:25 | 43.78551 | 78.85826 | 26553 ft | 412 kts | 272° |
| 2026-04-13 22:25 | 43.78620 | 78.81823 | 26033 ft | 409 kts | 271° |
| 2026-04-13 22:25 | 43.78687 | 78.77899 | 25494 ft | 407 kts | 271° |
| 2026-04-13 22:25 | 43.78752 | 78.74005 | 24972 ft | 405 kts | 271° |
| 2026-04-13 22:26 | 43.78814 | 78.70172 | 24441 ft | 403 kts | 271° |
| 2026-04-13 22:26 | 43.78873 | 78.66302 | 23924 ft | 402 kts | 272° |
| 2026-04-13 22:26 | 43.78932 | 78.62445 | 23322 ft | 400 kts | 272° |
| 2026-04-13 22:26 | 43.78993 | 78.58567 | 22742 ft | 397 kts | 272° |
| 2026-04-13 22:27 | 43.79051 | 78.54761 | 22208 ft | 393 kts | 272° |
| 2026-04-13 22:27 | 43.79105 | 78.51049 | 21670 ft | 389 kts | 272° |
| 2026-04-13 22:27 | 43.79159 | 78.47325 | 21130 ft | 386 kts | 272° |
| 2026-04-13 22:27 | 43.79211 | 78.43575 | 20577 ft | 383 kts | 272° |
| 2026-04-13 22:28 | 43.79261 | 78.39914 | 20042 ft | 380 kts | 272° |
| 2026-04-13 22:28 | 43.79310 | 78.36305 | 19504 ft | 378 kts | 272° |
| 2026-04-13 22:28 | 43.79357 | 78.32684 | 18963 ft | 376 kts | 272° |
| 2026-04-13 22:28 | 43.79403 | 78.29075 | 18416 ft | 374 kts | 272° |
| 2026-04-13 22:29 | 43.79446 | 78.25561 | 17860 ft | 362 kts | 272° |
| 2026-04-13 22:29 | 43.79488 | 78.22089 | 17309 ft | 359 kts | 272° |
| 2026-04-13 22:29 | 43.79529 | 78.18647 | 16806 ft | 356 kts | 272° |
| 2026-04-13 22:29 | 43.79568 | 78.15245 | 16293 ft | 353 kts | 272° |
| 2026-04-13 22:30 | 43.79608 | 78.11853 | 15803 ft | 350 kts | 272° |
| 2026-04-13 22:30 | 43.79655 | 78.08504 | 15334 ft | 346 kts | 272° |
| 2026-04-13 22:30 | 43.79702 | 78.05232 | 15193 ft | 333 kts | 272° |
| 2026-04-13 22:30 | 43.79745 | 78.02085 | 15081 ft | 320 kts | 272° |
| 2026-04-13 22:31 | 43.79784 | 77.99039 | 14743 ft | 315 kts | 272° |
| 2026-04-13 22:31 | 43.79593 | 77.96022 | 14308 ft | 316 kts | 258° |
| 2026-04-13 22:31 | 43.78755 | 77.93225 | 13897 ft | 317 kts | 240° |
| 2026-04-13 22:31 | 43.77548 | 77.90684 | 13441 ft | 316 kts | 238° |
| 2026-04-13 22:32 | 43.76315 | 77.88164 | 12936 ft | 315 kts | 238° |
| 2026-04-13 22:32 | 43.75098 | 77.85661 | 12516 ft | 312 kts | 238° |
| 2026-04-13 22:32 | 43.73899 | 77.83187 | 12120 ft | 308 kts | 238° |
| 2026-04-13 22:32 | 43.72714 | 77.80738 | 11707 ft | 305 kts | 238° |
| 2026-04-13 22:33 | 43.71541 | 77.78315 | 11327 ft | 301 kts | 238° |
| 2026-04-13 22:33 | 43.70392 | 77.75942 | 11159 ft | 291 kts | 238° |
| 2026-04-13 22:33 | 43.69289 | 77.73664 | 11037 ft | 279 kts | 238° |
| 2026-04-13 22:34 | 43.66200 | 77.67284 | 10379 ft | 260 kts | 238° |
| 2026-04-13 22:34 | 43.65196 | 77.65212 | 10086 ft | 259 kts | 238° |
| 2026-04-13 22:34 | 43.64186 | 77.63126 | 9802 ft | 269 kts | 238° |
| 2026-04-13 22:35 | 43.63123 | 77.60933 | 9672 ft | 276 kts | 238° |
| 2026-04-13 22:35 | 43.62069 | 77.58767 | 9233 ft | 268 kts | 238° |
| 2026-04-13 22:35 | 43.61013 | 77.56598 | 8818 ft | 275 kts | 238° |
| 2026-04-13 22:35 | 43.59942 | 77.54396 | 8504 ft | 278 kts | 238° |
| 2026-04-13 22:36 | 43.58860 | 77.52174 | 8338 ft | 280 kts | 238° |
| 2026-04-13 22:36 | 43.57783 | 77.49963 | 7968 ft | 273 kts | 238° |
| 2026-04-13 22:36 | 43.56736 | 77.47771 | 7574 ft | 274 kts | 238° |
| 2026-04-13 22:36 | 43.55695 | 77.45579 | 7247 ft | 275 kts | 238° |
| 2026-04-13 22:37 | 43.54656 | 77.43396 | 6950 ft | 275 kts | 238° |
| 2026-04-13 22:37 | 43.53642 | 77.41273 | 6745 ft | 256 kts | 238° |
| 2026-04-13 22:37 | 43.52679 | 77.39259 | 6622 ft | 252 kts | 238° |
| 2026-04-13 22:37 | 43.51708 | 77.37227 | 6359 ft | 253 kts | 238° |
| 2026-04-13 22:38 | 43.50742 | 77.35215 | 5994 ft | 251 kts | 238° |
| 2026-04-13 22:38 | 43.49781 | 77.33205 | 5687 ft | 251 kts | 238° |
| 2026-04-13 22:38 | 43.48841 | 77.31243 | 5489 ft | 241 kts | 238° |
| 2026-04-13 22:38 | 43.47930 | 77.29343 | 5362 ft | 232 kts | 238° |
| 2026-04-13 22:39 | 43.47054 | 77.27517 | 5243 ft | 223 kts | 237° |
| 2026-04-13 22:39 | 43.46189 | 77.25801 | 5163 ft | 212 kts | 236° |
| 2026-04-13 22:39 | 43.45347 | 77.24224 | 5104 ft | 198 kts | 231° |
| 2026-04-13 22:39 | 43.44542 | 77.22764 | 5022 ft | 186 kts | 237° |
| 2026-04-13 22:40 | 43.43843 | 77.21323 | 4873 ft | 178 kts | 235° |
| 2026-04-13 22:40 | 43.43130 | 77.19939 | 4633 ft | 176 kts | 236° |
| 2026-04-13 22:40 | 43.42451 | 77.18572 | 4374 ft | 169 kts | 236° |
| 2026-04-13 22:40 | 43.41815 | 77.17289 | 4173 ft | 158 kts | 236° |
| 2026-04-13 22:41 | 43.41214 | 77.16082 | 3983 ft | 147 kts | 236° |
| 2026-04-13 22:41 | 43.40651 | 77.14949 | 3837 ft | 142 kts | 236° |
| 2026-04-13 22:41 | 43.40084 | 77.13809 | 3626 ft | 147 kts | 236° |
| 2026-04-13 22:41 | 43.39506 | 77.12637 | 3393 ft | 146 kts | 236° |
| 2026-04-13 22:42 | 43.38951 | 77.11491 | 3169 ft | 142 kts | 237° |
| 2026-04-13 22:42 | 43.38395 | 77.10380 | 2943 ft | 141 kts | 234° |
| 2026-04-13 22:42 | 43.37839 | 77.09279 | 2773 ft | 139 kts | 234° |
| 2026-04-13 22:42 | 43.37305 | 77.08185 | 2586 ft | 137 kts | 235° |
| 2026-04-13 22:43 | 43.36765 | 77.07088 | 2407 ft | 139 kts | 234° |
| 2026-04-13 22:43 | 43.36227 | 77.05999 | 2264 ft | 137 kts | 234° |
| 2026-04-13 22:43 | 43.35724 | 77.04981 | 2234 ft | 116 kts | 237° |
| 2026-04-13 22:43 | 43.35332 | 77.04184 | 2235 ft | 88 kts | 236° |
| 2026-04-13 22:44 | 43.35026 | 77.03565 | 2236 ft | 69 kts | 236° |
| 2026-04-13 22:44 | 43.34788 | 77.03092 | 2234 ft | 49 kts | 235° |
| 2026-04-13 22:44 | 43.34614 | 77.02737 | 2236 ft | 42 kts | 236° |
| 2026-04-13 22:44 | 43.34509 | 77.02523 | 2238 ft | 21 kts | 236° |
| 2026-04-13 22:45 | 43.34493 | 77.02350 | 2237 ft | 18 kts | 278° |
| 2026-04-13 22:45 | 43.34502 | 77.02173 | 2236 ft | 19 kts | 273° |
| 2026-04-13 22:45 | 43.34510 | 77.01986 | 2236 ft | 20 kts | 274° |
| 2026-04-13 22:45 | 43.34519 | 77.01791 | 2236 ft | 21 kts | 274° |
| 2026-04-13 22:46 | 43.34528 | 77.01595 | 2236 ft | 12 kts | 274° |
| 2026-04-13 22:46 | 43.34529 | 77.01579 | 2236 ft | 2 kts | 274° |
| 2026-04-13 22:46 | 43.34531 | 77.01530 | 2236 ft | 8 kts | 274° |
| 2026-04-13 22:46 | 43.34578 | 77.01469 | 2235 ft | 12 kts | 347° |
| 2026-04-13 22:47 | 43.34677 | 77.01438 | 2235 ft | 16 kts | 337° |
| 2026-04-13 22:47 | 43.34705 | 77.01393 | 2235 ft | 1 kts | 259° |
| 2026-04-13 22:47 | 43.34705 | 77.01390 | 2235 ft | 1 kts | 258° |
| 2026-04-13 22:47 | 43.34701 | 77.01367 | 2235 ft | 5 kts | 255° |
| 2026-04-13 22:48 | 43.34689 | 77.01329 | 2235 ft | 0 kts | 245° |
| 2026-04-13 22:48 | 43.34689 | 77.01327 | 2235 ft | 2 kts | 245° |
| 2026-04-13 22:48 | 43.34686 | 77.01320 | 2235 ft | 0 kts | 245° |